KLVM/LVM METAR and TAF weather

Enter ICAO airport designator
Station Type Date Time Source
KLVM METAR 2021/08/05 03:53 UTC NOAA

KLVM 050353Z AUTO 12011KT 10SM CLR 24/04 A3012 RMK AO2 SLP148 T02440039


Station Type Date Time Source
KLVM Decoded METAR 2021/08/05 03:53 UTC NOAA

LIVINGSTON MISSION FIELD, MT, United States (KLVM) 45-42N 110-26W 1418M
Aug 04, 2021 - 11:53 PM EDT / 2021.08.05 0353 UTC
Wind: from the ESE (120 degrees) at 13 MPH (11 KT):0
Visibility: 10 mile(s):0
Sky conditions: clear
Temperature: 75.9 F (24.4 C)
Dew Point: 39.0 F (3.9 C)
Relative Humidity: 26%
Pressure (altimeter): 30.12 in. Hg (1019 hPa)
ob: KLVM 050353Z AUTO 12011KT 10SM CLR 24/04 A3012 RMK AO2 SLP148 T02440039
cycle: 4

Station Type Date Time Source
KLVM TAF 2021/08/04 18:36 UTC NOAA

TAF KLVM 041734Z 0418/0518 27010KT 6SM FU FEW120
FM042000 29011G17KT 6SM FU FEW100 SCT150
FM050200 VRB06KT P6SM SCT100
FM050700 30007KT P6SM FEW150

Example: see airport list